Latest Weather Observations for Sydney Olympic Park

IDN60901

Issued at 10:01 pm EDT Tuesday 24 January 2017 (issued every 10 minutes, with the page automatically refreshed every 10 minutes)

About weather observations | Map of Sydney area stations | Latest observations for Sydney area | Other Formats
Station Details ID: 066212 Name: SYDNEY OLYMPIC PARK AWS (ARCHERY CENTRE) Lat: -33.83 Lon: 151.07 Height: 4.0 m
Data from the previous 72 hours. | See also: Recent months at Sydney Olympic Park
Date/Time
EDT
Temp
°C
App
Temp
°C
Dew
Point
°C
Rel
Hum
%
Delta-T
°C
Wind Press
QNH
hPa
Press
MSL
hPa
Rain since
9am
mm
Dir  Spd
km/h
Gust
km/h
Spd
kts
Gust
kts
24/09:30pm 21.2 21.1 17.8 81 2.1 SSE 15 20 8 11 - - 12.4
24/09:00pm 21.3 20.4 18.1 82 2.0 SSE 20 32 11 17 - - 12.4
24/08:30pm 21.2 20.4 18.4 84 1.7 S 20 30 11 16 - - 12.4
24/08:00pm 21.4 21.0 19.3 88 1.3 SSE 20 30 11 16 - - 12.4
24/07:30pm 21.5 21.2 19.6 89 1.2 SSE 20 37 11 20 - - 12.4
24/07:05pm 21.2 20.9 20.4 95 0.5 SSE 22 37 12 20 - - 12.4
24/07:00pm 21.1 20.5 20.6 97 0.3 SSE 24 37 13 20 - - 12.4
24/06:30pm 20.7 20.1 20.4 98 0.2 SSE 24 37 13 20 - - 6.6
24/06:00pm 22.3 21.7 20.4 89 1.2 SSE 24 39 13 21 - - 0.4
24/05:52pm 22.7 21.1 20.0 85 1.7 SSE 28 46 15 25 - - 0.2
24/05:50pm 22.9 21.7 20.1 84 1.8 SSE 26 46 14 25 - - 0.2
24/05:30pm 23.3 21.0 20.2 83 2.0 SSE 32 44 17 24 - - 0.2
24/05:13pm 23.5 21.9 20.8 85 1.8 SSE 30 56 16 30 - - 0.2
24/05:00pm 23.8 21.7 20.9 84 1.9 SSE 33 56 18 30 - - 0.0
24/04:55pm 24.2 20.9 20.1 78 2.7 SSE 37 63 20 34 - - 0.0
24/04:47pm 28.6 28.7 18.4 54 6.5 WSW 15 63 8 34 - - 0.0
24/04:30pm 33.8 36.0 21.2 47 8.5 WNW 11 17 6 9 - - 0.0
24/04:00pm 34.5 36.0 20.5 44 9.4 WNW 13 22 7 12 - - 0.0
24/03:30pm 34.4 35.5 20.4 44 9.4 NW 15 26 8 14 - - 0.0
24/03:00pm 35.1 36.1 20.2 41 10.0 WNW 15 22 8 12 - - 0.0
24/02:30pm 35.0 35.0 19.8 41 10.1 WNW 19 32 10 17 - - 0.0
24/02:00pm 35.5 35.3 19.4 38 10.7 W 19 37 10 20 - - 0.0
24/01:30pm 35.4 34.8 18.9 37 10.9 W 20 32 11 17 - - 0.0
24/01:00pm 37.2 36.9 19.6 35 11.7 WNW 20 33 11 18 - - 0.0
24/12:30pm 35.5 35.5 19.8 39 10.5 WNW 19 32 10 17 - - 0.0
24/12:00pm 35.5 35.0 19.0 37 10.9 WNW 20 35 11 19 - - 0.0
24/11:30am 35.8 33.9 19.3 38 10.9 WNW 28 46 15 25 - - 0.0
24/11:00am 35.6 34.5 18.7 37 11.1 WNW 22 39 12 21 - - 0.0
24/10:35am 35.6 33.2 18.2 35 11.3 WNW 28 46 15 25 - - 0.0
24/10:30am 36.2 34.4 17.8 33 12.0 WNW 24 46 13 25 - - 0.0
24/10:00am 35.9 34.7 17.6 34 11.8 WNW 20 35 11 19 - - 0.0
24/09:30am 36.1 35.6 18.7 36 11.4 NW 19 28 10 15 - - 0.0
24/09:00am 33.8 34.1 17.9 38 10.3 NW 13 24 7 13 - - 0.0
24/08:30am 32.6 32.8 17.6 40 9.6 NW 13 20 7 11 - - 0.0
24/08:00am 32.2 32.5 16.9 40 9.7 NW 11 17 6 9 - - 0.0
24/07:30am 31.3 32.3 16.9 42 9.1 NW 7 15 4 8 - - 0.0
24/07:00am 31.3 31.2 16.9 42 9.1 NW 13 24 7 13 - - 0.0
24/06:30am 31.3 30.6 16.5 41 9.3 NNW 15 24 8 13 - - 0.0
24/06:00am 31.2 30.7 16.8 42 9.1 NNW 15 24 8 13 - - 0.0
24/05:30am 30.9 30.8 16.9 43 8.8 NNW 13 22 7 12 - - 0.0
24/05:00am 31.1 30.5 16.7 42 9.1 NNW 15 22 8 12 - - 0.0
24/04:30am 30.1 30.5 17.2 46 8.2 NNW 11 17 6 9 - - 0.0
24/04:00am 30.1 30.6 17.5 46 8.0 NNW 11 19 6 10 - - 0.0
24/03:30am 27.5 29.1 18.2 57 5.9 N 7 15 4 8 - - 0.0
24/03:00am 24.9 28.2 19.1 70 3.7 CALM 0 0 0 0 - - 0.0
24/02:30am 25.9 29.4 19.5 68 4.1 CALM 0 0 0 0 - - 0.0
24/02:00am 27.4 30.0 18.4 58 5.7 NE 2 7 1 4 - - 0.0
24/01:30am 27.6 29.4 18.3 57 5.9 NNE 6 11 3 6 - - 0.0
24/01:00am 27.3 29.5 18.3 58 5.7 NNE 4 11 2 6 - - 0.0
24/12:30am 27.4 29.3 18.9 59 5.5 NE 7 11 4 6 - - 0.0
24/12:00am 25.4 27.6 19.1 68 4.0 SSE 6 7 3 4 - - 0.0
 
Date/Time
EDT
Temp
°C
App
Temp
°C
Dew
Point
°C
Rel
Hum
%
Delta-T
°C
Wind Press
QNH
hPa
Press
MSL
hPa
Rain since
9am
mm
Dir  Spd
km/h
Gust
km/h
Spd
kts
Gust
kts
23/11:30pm 26.3 29.4 18.7 63 4.9 CALM 0 0 0 0 - - 0.0
23/11:00pm 27.1 30.1 18.4 59 5.5 CALM 0 6 0 3 - - 0.0
23/10:30pm 28.2 29.4 18.3 55 6.3 NE 9 19 5 10 - - 0.0
23/10:00pm 28.4 28.7 17.9 53 6.7 NE 13 22 7 12 - - 0.0
23/09:30pm 28.3 28.3 17.2 51 7.0 NE 13 24 7 13 - - 0.0
23/09:00pm 28.5 27.5 16.7 48 7.4 NE 17 30 9 16 - - 0.0
23/08:30pm 28.8 27.7 16.4 47 7.7 NE 17 30 9 16 - - 0.0
23/08:00pm 29.4 27.7 16.2 44 8.2 NE 20 35 11 19 - - 0.0
23/07:30pm 30.1 28.8 17.2 46 8.2 NE 20 37 11 20 - - 0.0
23/07:00pm 30.5 29.7 17.9 47 8.1 NE 19 32 10 17 - - 0.0
23/06:30pm 31.3 30.6 18.3 46 8.4 NE 19 32 10 17 - - 0.0
23/06:00pm 32.1 31.6 18.7 45 8.7 NE 19 32 10 17 - - 0.0
23/05:30pm 32.4 31.7 18.6 44 9.0 NE 20 39 11 21 - - 0.0
23/05:00pm 32.9 33.3 19.0 43 9.1 NE 15 26 8 14 - - 0.0
23/04:30pm 33.2 33.6 18.9 42 9.3 NE 15 28 8 15 - - 0.0
23/04:00pm 33.4 32.7 19.5 44 9.2 E 22 32 12 17 - - 0.0
23/03:30pm 33.7 33.7 19.0 42 9.6 NE 17 30 9 16 - - 0.0
23/03:00pm 34.1 35.2 19.7 42 9.5 ENE 13 22 7 12 - - 0.0
23/02:30pm 34.1 34.7 19.4 42 9.7 ENE 15 26 8 14 - - 0.0
23/02:00pm 32.3 32.9 20.2 48 8.0 ESE 17 22 9 12 - - 0.0
23/01:30pm 31.4 31.4 19.7 49 7.7 E 19 26 10 14 - - 0.0
23/01:00pm 30.4 30.3 20.0 53 6.8 SE 20 28 11 15 - - 0.0
23/12:30pm 30.6 31.5 20.8 56 6.5 ESE 17 28 9 15 - - 0.0
23/12:00pm 30.0 30.2 19.4 53 6.9 ESE 17 20 9 11 - - 0.0
23/11:30am 31.9 33.2 18.5 45 8.7 ENE 9 15 5 8 - - 0.0
23/11:00am 28.8 29.9 18.0 52 6.9 ESE 9 15 5 8 - - 0.0
23/10:30am 27.4 29.1 18.4 58 5.7 ESE 7 11 4 6 - - 0.0
23/10:00am 26.3 27.9 17.9 60 5.3 N 6 13 3 7 - - 0.0
23/09:30am 25.8 27.4 19.2 67 4.2 NW 9 20 5 11 - - 0.0
23/09:00am 24.8 25.7 18.5 68 4.0 NNW 11 19 6 10 - - 0.0
23/08:30am 23.7 25.1 17.9 70 3.6 NNE 7 13 4 7 - - 0.0
23/08:00am 22.6 24.4 18.4 77 2.6 N 6 11 3 6 - - 0.0
23/07:30am 21.4 24.2 18.0 81 2.1 CALM 0 0 0 0 - - 0.0
23/07:00am 20.6 23.6 18.4 87 1.4 CALM 0 0 0 0 - - 0.0
23/06:30am 20.0 22.9 18.3 90 1.1 CALM 0 0 0 0 - - 0.0
23/06:00am 20.0 22.8 18.0 88 1.2 CALM 0 0 0 0 - - 0.0
23/05:30am 20.7 23.1 17.9 84 1.7 NE 2 9 1 5 - - 0.0
23/05:06am 20.9 23.3 17.9 83 1.9 NE 2 7 1 4 - - 0.0
23/05:00am 20.9 23.3 17.9 83 1.9 ENE 2 7 1 4 - - 0.0
23/04:52am 21.0 23.4 18.0 83 1.9 E 2 9 1 5 - - 0.0
23/04:38am 21.0 23.4 18.0 83 1.9 NE 2 7 1 4 - - 0.0
23/04:30am 21.0 23.3 17.8 82 2.0 ENE 2 7 1 4 - - 0.0
23/04:05am 21.2 23.6 18.0 82 2.0 E 2 7 1 4 - - 0.0
23/04:00am 21.2 23.2 17.8 81 2.1 NNE 4 11 2 6 - - 0.0
23/03:30am 21.5 23.1 17.9 80 2.2 ENE 6 11 3 6 - - 0.0
23/03:00am 21.6 23.2 17.8 79 2.4 NE 6 7 3 4 - - 0.0
23/02:30am 21.9 23.5 17.9 78 2.5 NE 6 11 3 6 - - 0.0
23/02:00am 22.1 23.8 18.1 78 2.5 NE 6 11 3 6 - - 0.0
23/01:30am 22.2 23.7 18.0 77 2.6 NNE 7 11 4 6 - - 0.0
23/01:00am 22.2 24.2 17.8 76 2.7 NNE 4 11 2 6 - - 0.0
23/12:30am 22.3 23.9 17.9 76 2.7 NNE 6 11 3 6 - - 0.0
23/12:00am 22.5 24.1 17.8 75 2.9 NNE 6 11 3 6 - - 0.0
 
Date/Time
EDT
Temp
°C
App
Temp
°C
Dew
Point
°C
Rel
Hum
%
Delta-T
°C
Wind Press
QNH
hPa
Press
MSL
hPa
Rain since
9am
mm
Dir  Spd
km/h
Gust
km/h
Spd
kts
Gust
kts
22/11:30pm 22.5 23.8 17.6 74 3.0 NNE 7 13 4 7 - - 0.0
22/11:00pm 22.7 23.6 17.6 73 3.2 NNE 9 15 5 8 - - 0.0
22/10:30pm 22.8 23.8 17.7 73 3.2 NNE 9 19 5 10 - - 0.0
22/10:00pm 23.0 23.6 17.7 72 3.3 NE 11 19 6 10 - - 0.0
22/09:30pm 23.1 23.5 17.3 70 3.6 NE 11 20 6 11 - - 0.0
22/09:00pm 23.2 23.4 16.7 67 4.0 NE 11 22 6 12 - - 0.0
22/08:30pm 23.5 23.2 16.5 65 4.3 NE 13 28 7 15 - - 0.0
22/08:00pm 23.8 23.1 16.3 63 4.6 NE 15 28 8 15 - - 0.0
22/07:30pm 24.2 23.4 16.2 61 4.9 ENE 15 26 8 14 - - 0.0
22/07:00pm 24.7 23.6 16.4 60 5.1 E 17 28 9 15 - - 0.0
22/06:30pm 25.2 23.7 15.2 54 6.0 NE 17 24 9 13 - - 0.0
22/06:00pm 25.8 24.4 15.5 53 6.2 NE 17 26 9 14 - - 0.0
22/05:30pm 26.3 24.7 15.0 49 6.8 ENE 17 26 9 14 - - 0.0
22/05:00pm 26.1 24.1 14.9 50 6.7 E 19 33 10 18 - - 0.0
22/04:30pm 26.7 25.5 15.1 49 7.0 ENE 15 28 8 15 - - 0.0
22/04:00pm 27.2 25.8 15.6 49 7.1 ENE 17 28 9 15 - - 0.0
22/03:30pm 27.5 26.6 16.8 52 6.7 E 17 28 9 15 - - 0.0
22/03:00pm 27.1 25.5 16.1 51 6.8 E 19 32 10 17 - - 0.0
22/02:30pm 26.5 25.6 15.8 51 6.5 E 15 22 8 12 - - 0.0
22/02:00pm 26.3 26.1 15.7 52 6.5 E 11 22 6 12 - - 0.0
22/01:30pm 26.3 26.4 15.4 51 6.6 ENE 9 19 5 10 - - 0.0
22/01:00pm 26.3 26.2 16.0 53 6.3 ENE 11 20 6 11 - - 0.0
22/12:30pm 25.2 23.6 14.9 52 6.2 E 17 22 9 12 - - 0.0
22/12:00pm 25.0 24.3 15.3 55 5.8 ESE 13 20 7 11 - - 0.0
22/11:30am 24.5 23.9 14.6 54 5.9 ESE 11 19 6 10 - - 0.0
22/11:00am 24.6 25.1 15.0 55 5.7 E 6 13 3 7 - - 0.0
22/10:30am 23.9 24.0 14.0 54 5.8 E 6 11 3 6 - - 0.0
22/10:00am 23.9 24.1 14.3 55 5.7 SSE 6 9 3 5 - - 0.0
22/09:30am 23.2 23.2 13.7 55 5.5 ENE 6 9 3 5 - - 0.0
22/09:00am 22.9 23.8 13.9 57 5.3 NNE 2 9 1 5 - - 0.0
22/08:30am 22.5 22.5 14.1 59 4.9 ESE 7 11 4 6 - - 0.0
22/08:00am 22.1 22.2 14.5 62 4.5 SE 7 11 4 6 - - 0.0
22/07:30am 21.1 22.1 14.3 65 4.0 SSE 2 9 1 5 - - 0.0
22/07:00am 20.2 21.6 14.3 69 3.4 CALM 0 0 0 0 - - 0.0
22/06:30am 20.2 20.7 13.9 67 3.6 SW 4 7 2 4 - - 0.0
22/06:00am 20.2 20.7 13.9 67 3.6 S 4 9 2 5 - - 0.0
22/05:30am 20.2 20.7 13.9 67 3.6 S 4 9 2 5 - - 0.0
22/05:00am 20.2 20.7 13.9 67 3.6 S 4 7 2 4 - - 0.0
22/04:30am 20.1 20.2 13.8 67 3.6 SE 6 9 3 5 - - 0.0
22/04:00am 20.2 20.0 13.6 66 3.8 S 7 13 4 7 - - 0.0
22/03:30am 20.3 21.2 14.0 67 3.6 S 2 7 1 4 - - 0.0
22/03:00am 20.3 20.2 14.0 67 3.6 SSE 7 11 4 6 - - 0.0
22/02:30am 20.5 21.1 14.2 67 3.7 SSE 4 9 2 5 - - 0.0
22/02:00am 20.5 20.5 14.2 67 3.7 SSE 7 13 4 7 - - 0.0
22/01:30am 20.6 20.3 14.3 67 3.7 SSE 9 15 5 8 - - 0.0
22/01:00am 20.6 19.9 14.3 67 3.7 SSE 11 17 6 9 - - 0.0
22/12:30am 20.7 19.5 14.1 66 3.8 SE 13 20 7 11 - - 0.0
22/12:00am 20.8 19.7 14.2 66 3.8 SE 13 19 7 10 - - 0.0
 
Date/Time
EDT
Temp
°C
App
Temp
°C
Dew
Point
°C
Rel
Hum
%
Delta-T
°C
Wind Press
QNH
hPa
Press
MSL
hPa
Rain since
9am
mm
Dir  Spd
km/h
Gust
km/h
Spd
kts
Gust
kts
21/11:30pm 20.9 20.6 14.5 67 3.7 SSE 9 13 5 7 - - 0.0
21/11:00pm 21.1 21.0 15.0 68 3.6 SSE 9 17 5 9 - - 0.0
21/10:30pm 21.2 19.9 14.8 67 3.8 SSE 15 22 8 12 - - 0.0

Latest Capital City Observations: Canberra | Sydney | Melbourne | Brisbane | Adelaide | Perth | Hobart | Darwin

Other Formats:

Comma delimited format used in spreadsheet applications
http://www.bom.gov.au/fwo/IDN60901/IDN60901.95765.axf

JavaScript Object Notation format (JSON) in row-major order
http://www.bom.gov.au/fwo/IDN60901/IDN60901.95765.json